sensor_id;sensor_type;location;lat;lon;timestamp;P1;durP1;ratioP1;P2;durP2;ratioP2
62353;SDS011;48391;49.184;2.418;2022-07-23T05:18:25;21.88;;;15.13;;
62353;SDS011;48391;49.184;2.418;2022-07-23T05:20:51;19.00;;;14.57;;
62353;SDS011;48391;49.184;2.418;2022-07-23T05:23:17;23.40;;;14.95;;
62353;SDS011;48391;49.184;2.418;2022-07-23T05:25:43;21.88;;;14.35;;
62353;SDS011;48391;49.184;2.418;2022-07-23T05:28:09;18.90;;;14.77;;
62353;SDS011;48391;49.184;2.418;2022-07-23T05:30:36;18.00;;;14.63;;
62353;SDS011;48391;49.184;2.418;2022-07-23T05:33:02;20.27;;;14.05;;
62353;SDS011;48391;49.184;2.418;2022-07-23T05:35:28;19.90;;;15.38;;
62353;SDS011;48391;49.184;2.418;2022-07-23T05:37:54;15.60;;;12.95;;
62353;SDS011;48391;49.184;2.418;2022-07-23T05:40:20;21.70;;;13.98;;
62353;SDS011;48391;49.184;2.418;2022-07-23T05:42:46;19.15;;;13.40;;
62353;SDS011;48391;49.184;2.418;2022-07-23T05:45:12;16.80;;;13.38;;
62353;SDS011;48391;49.184;2.418;2022-07-23T05:47:41;19.95;;;13.88;;
62353;SDS011;48391;49.184;2.418;2022-07-23T05:50:08;20.13;;;14.45;;
62353;SDS011;48391;49.184;2.418;2022-07-23T05:52:34;18.70;;;14.38;;
62353;SDS011;48391;49.184;2.418;2022-07-23T05:55:00;17.05;;;13.55;;
62353;SDS011;48391;49.184;2.418;2022-07-23T05:57:26;18.35;;;14.40;;
62353;SDS011;48391;49.184;2.418;2022-07-23T05:59:52;18.60;;;13.60;;
62353;SDS011;48391;49.184;2.418;2022-07-23T06:02:18;20.13;;;14.50;;
62353;SDS011;48391;49.184;2.418;2022-07-23T06:04:44;17.20;;;13.90;;
62353;SDS011;48391;49.184;2.418;2022-07-23T06:07:11;21.77;;;14.55;;
62353;SDS011;48391;49.184;2.418;2022-07-23T06:09:37;17.65;;;14.73;;
62353;SDS011;48391;49.184;2.418;2022-07-23T06:12:03;16.33;;;13.52;;
62353;SDS011;48391;49.184;2.418;2022-07-23T06:14:29;16.40;;;14.18;;
62353;SDS011;48391;49.184;2.418;2022-07-23T06:16:55;18.70;;;13.63;;
62353;SDS011;48391;49.184;2.418;2022-07-23T06:19:21;19.40;;;14.93;;
62353;SDS011;48391;49.184;2.418;2022-07-23T06:21:47;16.30;;;14.45;;
62353;SDS011;48391;49.184;2.418;2022-07-23T06:24:13;22.80;;;15.18;;
62353;SDS011;48391;49.184;2.418;2022-07-23T06:26:39;21.13;;;14.32;;
62353;SDS011;48391;49.184;2.418;2022-07-23T06:29:05;22.33;;;14.05;;
62353;SDS011;48391;49.184;2.418;2022-07-23T06:31:31;22.52;;;16.30;;
62353;SDS011;48391;49.184;2.418;2022-07-23T06:33:57;20.63;;;15.15;;
62353;SDS011;48391;49.184;2.418;2022-07-23T06:36:23;18.13;;;13.65;;
62353;SDS011;48391;49.184;2.418;2022-07-23T06:38:49;20.92;;;14.88;;
62353;SDS011;48391;49.184;2.418;2022-07-23T06:41:15;18.88;;;14.70;;
62353;SDS011;48391;49.184;2.418;2022-07-23T06:43:41;21.05;;;14.98;;
62353;SDS011;48391;49.184;2.418;2022-07-23T06:46:07;17.92;;;14.32;;
62353;SDS011;48391;49.184;2.418;2022-07-23T06:48:33;18.67;;;14.18;;
62353;SDS011;48391;49.184;2.418;2022-07-23T06:51:00;20.17;;;14.88;;
62353;SDS011;48391;49.184;2.418;2022-07-23T06:53:26;22.38;;;15.65;;
62353;SDS011;48391;49.184;2.418;2022-07-23T06:55:52;16.10;;;13.80;;
62353;SDS011;48391;49.184;2.418;2022-07-23T06:58:18;21.25;;;15.43;;
62353;SDS011;48391;49.184;2.418;2022-07-23T07:00:45;18.33;;;15.32;;
62353;SDS011;48391;49.184;2.418;2022-07-23T07:03:11;20.48;;;14.57;;
62353;SDS011;48391;49.184;2.418;2022-07-23T07:05:37;16.23;;;13.88;;
62353;SDS011;48391;49.184;2.418;2022-07-23T07:08:05;15.70;;;13.20;;
62353;SDS011;48391;49.184;2.418;2022-07-23T07:10:31;23.70;;;15.48;;
62353;SDS011;48391;49.184;2.418;2022-07-23T07:12:57;21.38;;;15.45;;
62353;SDS011;48391;49.184;2.418;2022-07-23T07:15:23;21.58;;;13.23;;
62353;SDS011;48391;49.184;2.418;2022-07-23T07:17:49;18.88;;;14.27;;
62353;SDS011;48391;49.184;2.418;2022-07-23T07:20:16;19.70;;;14.93;;
62353;SDS011;48391;49.184;2.418;2022-07-23T07:22:42;21.98;;;12.93;;
62353;SDS011;48391;49.184;2.418;2022-07-23T07:25:08;19.35;;;14.05;;
62353;SDS011;48391;49.184;2.418;2022-07-23T07:27:34;18.88;;;14.27;;
62353;SDS011;48391;49.184;2.418;2022-07-23T07:30:00;16.75;;;12.70;;
62353;SDS011;48391;49.184;2.418;2022-07-23T07:32:26;17.77;;;12.57;;
62353;SDS011;48391;49.184;2.418;2022-07-23T07:34:52;16.70;;;12.85;;
62353;SDS011;48391;49.184;2.418;2022-07-23T07:37:18;17.33;;;13.63;;
62353;SDS011;48391;49.184;2.418;2022-07-23T07:39:44;17.38;;;13.57;;
62353;SDS011;48391;49.184;2.418;2022-07-23T07:42:10;13.65;;;12.20;;
62353;SDS011;48391;49.184;2.418;2022-07-23T07:44:36;13.68;;;12.02;;
62353;SDS011;48391;49.184;2.418;2022-07-23T07:47:02;15.70;;;13.13;;
62353;SDS011;48391;49.184;2.418;2022-07-23T07:49:28;16.95;;;13.07;;
62353;SDS011;48391;49.184;2.418;2022-07-23T07:51:54;17.23;;;14.00;;
62353;SDS011;48391;49.184;2.418;2022-07-23T07:54:20;14.15;;;12.65;;
62353;SDS011;48391;49.184;2.418;2022-07-23T07:56:46;18.40;;;12.73;;
62353;SDS011;48391;49.184;2.418;2022-07-23T07:59:13;19.35;;;12.68;;
62353;SDS011;48391;49.184;2.418;2022-07-23T08:01:39;17.63;;;13.32;;
62353;SDS011;48391;49.184;2.418;2022-07-23T08:04:05;15.90;;;12.65;;
62353;SDS011;48391;49.184;2.418;2022-07-23T08:06:32;20.80;;;14.15;;
62353;SDS011;48391;49.184;2.418;2022-07-23T08:08:58;16.77;;;13.57;;
62353;SDS011;48391;49.184;2.418;2022-07-23T08:11:24;16.98;;;13.10;;
62353;SDS011;48391;49.184;2.418;2022-07-23T08:13:50;18.02;;;14.23;;
62353;SDS011;48391;49.184;2.418;2022-07-23T08:16:16;18.40;;;13.45;;
62353;SDS011;48391;49.184;2.418;2022-07-23T08:18:42;20.52;;;15.32;;
62353;SDS011;48391;49.184;2.418;2022-07-23T08:21:08;18.60;;;15.65;;
62353;SDS011;48391;49.184;2.418;2022-07-23T08:23:34;19.30;;;15.32;;
62353;SDS011;48391;49.184;2.418;2022-07-23T08:26:00;27.20;;;16.27;;
62353;SDS011;48391;49.184;2.418;2022-07-23T08:28:26;20.80;;;15.30;;
62353;SDS011;48391;49.184;2.418;2022-07-23T08:30:52;21.23;;;15.38;;
62353;SDS011;48391;49.184;2.418;2022-07-23T08:33:18;20.13;;;13.70;;
62353;SDS011;48391;49.184;2.418;2022-07-23T08:35:45;22.95;;;14.93;;
62353;SDS011;48391;49.184;2.418;2022-07-23T08:38:14;17.45;;;14.70;;
62353;SDS011;48391;49.184;2.418;2022-07-23T08:40:41;19.13;;;15.82;;
62353;SDS011;48391;49.184;2.418;2022-07-23T08:43:09;19.00;;;14.20;;
62353;SDS011;48391;49.184;2.418;2022-07-23T08:45:36;19.80;;;17.13;;
62353;SDS011;48391;49.184;2.418;2022-07-23T08:48:03;22.95;;;17.80;;
62353;SDS011;48391;49.184;2.418;2022-07-23T08:50:30;23.23;;;17.02;;
62353;SDS011;48391;49.184;2.418;2022-07-23T08:52:57;17.98;;;16.08;;
62353;SDS011;48391;49.184;2.418;2022-07-23T08:55:24;22.05;;;16.92;;
62353;SDS011;48391;49.184;2.418;2022-07-23T08:57:51;21.80;;;17.58;;
62353;SDS011;48391;49.184;2.418;2022-07-23T09:00:18;20.25;;;16.73;;
62353;SDS011;48391;49.184;2.418;2022-07-23T09:02:45;20.55;;;15.73;;
62353;SDS011;48391;49.184;2.418;2022-07-23T09:05:11;19.40;;;16.33;;
62353;SDS011;48391;49.184;2.418;2022-07-23T09:07:38;25.40;;;15.50;;
62353;SDS011;48391;49.184;2.418;2022-07-23T09:10:23;21.45;;;16.33;;
62353;SDS011;48391;49.184;2.418;2022-07-23T09:12:49;19.95;;;15.00;;
62353;SDS011;48391;49.184;2.418;2022-07-23T09:15:15;16.50;;;13.55;;
62353;SDS011;48391;49.184;2.418;2022-07-23T09:17:42;18.63;;;14.60;;
62353;SDS011;48391;49.184;2.418;2022-07-23T09:20:15;18.75;;;14.13;;
62353;SDS011;48391;49.184;2.418;2022-07-23T09:22:45;17.00;;;13.52;;
62353;SDS011;48391;49.184;2.418;2022-07-23T09:30:14;31.40;;;20.40;;
62353;SDS011;48391;49.184;2.418;2022-07-23T09:32:40;25.40;;;18.98;;
62353;SDS011;48391;49.184;2.418;2022-07-23T09:35:06;27.67;;;20.33;;
62353;SDS011;48391;49.184;2.418;2022-07-23T09:37:32;26.52;;;19.30;;
62353;SDS011;48391;49.184;2.418;2022-07-23T09:40:08;23.13;;;17.55;;
62353;SDS011;48391;49.184;2.418;2022-07-23T09:42:36;26.73;;;18.33;;
62353;SDS011;48391;49.184;2.418;2022-07-23T09:45:02;24.77;;;17.67;;
62353;SDS011;48391;49.184;2.418;2022-07-23T09:47:30;25.88;;;18.17;;
62353;SDS011;48391;49.184;2.418;2022-07-23T09:50:03;20.40;;;17.00;;
62353;SDS011;48391;49.184;2.418;2022-07-23T09:55:09;19.65;;;15.80;;
62353;SDS011;48391;49.184;2.418;2022-07-23T09:57:35;21.13;;;15.80;;
62353;SDS011;48391;49.184;2.418;2022-07-23T10:00:04;25.40;;;17.20;;
62353;SDS011;48391;49.184;2.418;2022-07-23T10:02:31;25.33;;;17.30;;
62353;SDS011;48391;49.184;2.418;2022-07-23T10:04:58;25.63;;;16.92;;
62353;SDS011;48391;49.184;2.418;2022-07-23T10:07:25;22.13;;;15.15;;
62353;SDS011;48391;49.184;2.418;2022-07-23T10:09:55;20.20;;;14.75;;
62353;SDS011;48391;49.184;2.418;2022-07-23T10:12:21;21.88;;;15.05;;
62353;SDS011;48391;49.184;2.418;2022-07-23T10:14:47;21.92;;;16.33;;
62353;SDS011;48391;49.184;2.418;2022-07-23T10:17:13;20.67;;;16.25;;
62353;SDS011;48391;49.184;2.418;2022-07-23T10:19:39;19.05;;;14.77;;
62353;SDS011;48391;49.184;2.418;2022-07-23T10:22:06;24.30;;;16.45;;
62353;SDS011;48391;49.184;2.418;2022-07-23T10:30:15;18.38;;;13.75;;
62353;SDS011;48391;49.184;2.418;2022-07-23T10:35:15;20.20;;;12.60;;
62353;SDS011;48391;49.184;2.418;2022-07-23T10:37:45;20.60;;;13.75;;
62353;SDS011;48391;49.184;2.418;2022-07-23T10:42:37;15.38;;;12.98;;
62353;SDS011;48391;49.184;2.418;2022-07-23T10:45:26;19.35;;;13.57;;
62353;SDS011;48391;49.184;2.418;2022-07-23T10:47:50;16.77;;;12.52;;
62353;SDS011;48391;49.184;2.418;2022-07-23T10:52:53;14.80;;;11.48;;
62353;SDS011;48391;49.184;2.418;2022-07-23T10:57:54;19.45;;;11.57;;
62353;SDS011;48391;49.184;2.418;2022-07-23T11:00:21;18.85;;;12.55;;
62353;SDS011;48391;49.184;2.418;2022-07-23T11:02:58;18.80;;;12.15;;
62353;SDS011;48391;49.184;2.418;2022-07-23T11:05:46;12.38;;;11.10;;
62353;SDS011;48391;49.184;2.418;2022-07-23T11:10:42;16.00;;;12.18;;
62353;SDS011;48391;49.184;2.418;2022-07-23T11:34:31;16.30;;;13.60;;
62353;SDS011;48391;49.184;2.418;2022-07-23T11:36:57;16.60;;;13.77;;
62353;SDS011;48391;49.184;2.418;2022-07-23T11:39:24;14.43;;;12.90;;
62353;SDS011;48391;49.184;2.418;2022-07-23T11:41:54;17.73;;;15.98;;
62353;SDS011;48391;49.184;2.418;2022-07-23T11:46:59;15.73;;;13.60;;
62353;SDS011;48391;49.184;2.418;2022-07-23T11:49:25;16.40;;;14.43;;
62353;SDS011;48391;49.184;2.418;2022-07-23T11:54:40;14.80;;;13.27;;
62353;SDS011;48391;49.184;2.418;2022-07-23T11:57:12;20.30;;;16.88;;
62353;SDS011;48391;49.184;2.418;2022-07-23T11:59:38;18.92;;;14.60;;
62353;SDS011;48391;49.184;2.418;2022-07-23T12:02:04;17.75;;;15.63;;
62353;SDS011;48391;49.184;2.418;2022-07-23T12:04:44;17.35;;;15.48;;
62353;SDS011;48391;49.184;2.418;2022-07-23T12:10:19;20.77;;;15.05;;
62353;SDS011;48391;49.184;2.418;2022-07-23T12:12:52;19.25;;;17.10;;
62353;SDS011;48391;49.184;2.418;2022-07-23T12:15:20;15.57;;;13.68;;
62353;SDS011;48391;49.184;2.418;2022-07-23T12:17:48;16.23;;;14.55;;
62353;SDS011;48391;49.184;2.418;2022-07-23T12:20:19;20.38;;;15.48;;
62353;SDS011;48391;49.184;2.418;2022-07-23T12:22:49;19.58;;;14.55;;
62353;SDS011;48391;49.184;2.418;2022-07-23T12:27:42;17.90;;;14.35;;
62353;SDS011;48391;49.184;2.418;2022-07-23T12:30:18;18.52;;;15.35;;
62353;SDS011;48391;49.184;2.418;2022-07-23T12:32:45;16.20;;;14.60;;
62353;SDS011;48391;49.184;2.418;2022-07-23T12:35:11;18.70;;;16.42;;
62353;SDS011;48391;49.184;2.418;2022-07-23T12:37:39;18.60;;;14.93;;
62353;SDS011;48391;49.184;2.418;2022-07-23T12:40:22;14.82;;;12.82;;
62353;SDS011;48391;49.184;2.418;2022-07-23T12:42:53;16.48;;;14.68;;
62353;SDS011;48391;49.184;2.418;2022-07-23T12:45:19;14.93;;;13.52;;
62353;SDS011;48391;49.184;2.418;2022-07-23T12:47:57;16.58;;;13.73;;
62353;SDS011;48391;49.184;2.418;2022-07-23T12:50:30;14.95;;;13.15;;
62353;SDS011;48391;49.184;2.418;2022-07-23T12:53:09;14.90;;;12.57;;
62353;SDS011;48391;49.184;2.418;2022-07-23T12:55:36;13.85;;;12.30;;
62353;SDS011;48391;49.184;2.418;2022-07-23T12:58:06;13.77;;;12.27;;
62353;SDS011;48391;49.184;2.418;2022-07-23T13:00:33;16.35;;;14.50;;
62353;SDS011;48391;49.184;2.418;2022-07-23T13:06:13;14.60;;;11.95;;
62353;SDS011;48391;49.184;2.418;2022-07-23T13:08:39;14.55;;;12.43;;
62353;SDS011;48391;49.184;2.418;2022-07-23T13:11:06;12.93;;;11.57;;
62353;SDS011;48391;49.184;2.418;2022-07-23T13:13:33;18.77;;;12.07;;
62353;SDS011;48391;49.184;2.418;2022-07-23T13:15:59;11.65;;;10.55;;
62353;SDS011;48391;49.184;2.418;2022-07-23T13:18:26;14.68;;;11.00;;
62353;SDS011;48391;49.184;2.418;2022-07-23T13:20:52;13.68;;;10.88;;
62353;SDS011;48391;49.184;2.418;2022-07-23T13:23:20;12.57;;;11.27;;
62353;SDS011;48391;49.184;2.418;2022-07-23T13:25:46;12.13;;;11.00;;
62353;SDS011;48391;49.184;2.418;2022-07-23T13:28:13;12.48;;;11.38;;
62353;SDS011;48391;49.184;2.418;2022-07-23T13:30:39;12.93;;;11.20;;
62353;SDS011;48391;49.184;2.418;2022-07-23T13:33:06;13.80;;;11.23;;
62353;SDS011;48391;49.184;2.418;2022-07-23T13:35:33;14.35;;;11.95;;
62353;SDS011;48391;49.184;2.418;2022-07-23T13:37:59;13.88;;;12.38;;
62353;SDS011;48391;49.184;2.418;2022-07-23T13:40:25;12.88;;;10.95;;
62353;SDS011;48391;49.184;2.418;2022-07-23T13:42:51;17.10;;;9.88;;
62353;SDS011;48391;49.184;2.418;2022-07-23T13:45:17;12.13;;;11.02;;
62353;SDS011;48391;49.184;2.418;2022-07-23T13:47:43;12.68;;;11.48;;
62353;SDS011;48391;49.184;2.418;2022-07-23T13:50:09;13.23;;;11.38;;
62353;SDS011;48391;49.184;2.418;2022-07-23T13:52:35;16.17;;;11.93;;
62353;SDS011;48391;49.184;2.418;2022-07-23T13:55:02;13.85;;;11.32;;
62353;SDS011;48391;49.184;2.418;2022-07-23T13:57:30;10.85;;;9.80;;
62353;SDS011;48391;49.184;2.418;2022-07-23T13:59:56;13.18;;;11.30;;
62353;SDS011;48391;49.184;2.418;2022-07-23T14:02:22;12.65;;;10.60;;
62353;SDS011;48391;49.184;2.418;2022-07-23T14:04:49;15.23;;;11.02;;
62353;SDS011;48391;49.184;2.418;2022-07-23T14:07:15;12.48;;;10.35;;
62353;SDS011;48391;49.184;2.418;2022-07-23T14:09:41;11.73;;;9.73;;
62353;SDS011;48391;49.184;2.418;2022-07-23T14:12:07;13.00;;;10.65;;
62353;SDS011;48391;49.184;2.418;2022-07-23T14:14:34;10.85;;;9.85;;
62353;SDS011;48391;49.184;2.418;2022-07-23T14:17:00;10.32;;;9.30;;
62353;SDS011;48391;49.184;2.418;2022-07-23T14:19:26;11.43;;;9.95;;
62353;SDS011;48391;49.184;2.418;2022-07-23T14:21:52;13.27;;;10.43;;
62353;SDS011;48391;49.184;2.418;2022-07-23T14:24:18;12.52;;;9.90;;
62353;SDS011;48391;49.184;2.418;2022-07-23T14:26:44;11.63;;;10.45;;
62353;SDS011;48391;49.184;2.418;2022-07-23T14:29:11;10.10;;;9.00;;
62353;SDS011;48391;49.184;2.418;2022-07-23T14:31:37;15.02;;;10.18;;
62353;SDS011;48391;49.184;2.418;2022-07-23T14:34:03;12.00;;;8.77;;
62353;SDS011;48391;49.184;2.418;2022-07-23T14:36:29;8.57;;;7.75;;
62353;SDS011;48391;49.184;2.418;2022-07-23T14:38:55;9.25;;;8.32;;
62353;SDS011;48391;49.184;2.418;2022-07-23T14:41:21;9.55;;;8.65;;
62353;SDS011;48391;49.184;2.418;2022-07-23T14:43:47;9.50;;;8.57;;
62353;SDS011;48391;49.184;2.418;2022-07-23T14:46:14;10.20;;;9.07;;
62353;SDS011;48391;49.184;2.418;2022-07-23T14:48:40;11.25;;;8.60;;
62353;SDS011;48391;49.184;2.418;2022-07-23T14:51:06;9.95;;;8.55;;
62353;SDS011;48391;49.184;2.418;2022-07-23T14:53:32;9.02;;;8.18;;
62353;SDS011;48391;49.184;2.418;2022-07-23T14:55:58;9.73;;;8.77;;
62353;SDS011;48391;49.184;2.418;2022-07-23T14:58:24;9.65;;;8.75;;
62353;SDS011;48391;49.184;2.418;2022-07-23T15:00:50;9.50;;;8.60;;
62353;SDS011;48391;49.184;2.418;2022-07-23T15:03:16;10.07;;;8.35;;
62353;SDS011;48391;49.184;2.418;2022-07-23T15:05:42;10.00;;;8.85;;
62353;SDS011;48391;49.184;2.418;2022-07-23T15:08:08;9.88;;;8.70;;
62353;SDS011;48391;49.184;2.418;2022-07-23T15:10:35;10.30;;;7.95;;
62353;SDS011;48391;49.184;2.418;2022-07-23T15:13:01;11.45;;;8.68;;
62353;SDS011;48391;49.184;2.418;2022-07-23T15:15:27;7.68;;;6.88;;
62353;SDS011;48391;49.184;2.418;2022-07-23T15:17:53;9.75;;;7.03;;
62353;SDS011;48391;49.184;2.418;2022-07-23T15:20:19;8.38;;;7.40;;
62353;SDS011;48391;49.184;2.418;2022-07-23T15:22:45;9.07;;;7.75;;
62353;SDS011;48391;49.184;2.418;2022-07-23T15:25:12;10.32;;;9.10;;
62353;SDS011;48391;49.184;2.418;2022-07-23T15:27:39;8.82;;;7.57;;
62353;SDS011;48391;49.184;2.418;2022-07-23T15:30:05;10.80;;;7.10;;
62353;SDS011;48391;49.184;2.418;2022-07-23T15:32:31;9.32;;;6.72;;
62353;SDS011;48391;49.184;2.418;2022-07-23T15:34:57;8.15;;;7.22;;
62353;SDS011;48391;49.184;2.418;2022-07-23T15:37:23;7.75;;;7.05;;
62353;SDS011;48391;49.184;2.418;2022-07-23T15:39:49;7.72;;;6.60;;
62353;SDS011;48391;49.184;2.418;2022-07-23T15:42:15;7.50;;;6.82;;
62353;SDS011;48391;49.184;2.418;2022-07-23T15:44:42;7.88;;;6.93;;
62353;SDS011;48391;49.184;2.418;2022-07-23T15:47:12;7.28;;;6.60;;
62353;SDS011;48391;49.184;2.418;2022-07-23T15:49:39;7.15;;;6.45;;
62353;SDS011;48391;49.184;2.418;2022-07-23T15:52:05;8.07;;;7.38;;
62353;SDS011;48391;49.184;2.418;2022-07-23T15:54:31;7.30;;;6.60;;
62353;SDS011;48391;49.184;2.418;2022-07-23T15:56:57;8.02;;;7.22;;
62353;SDS011;48391;49.184;2.418;2022-07-23T15:59:23;10.52;;;7.82;;
62353;SDS011;48391;49.184;2.418;2022-07-23T16:01:49;7.88;;;7.10;;
62353;SDS011;48391;49.184;2.418;2022-07-23T16:04:15;8.23;;;7.30;;
62353;SDS011;48391;49.184;2.418;2022-07-23T16:06:41;8.70;;;7.80;;
62353;SDS011;48391;49.184;2.418;2022-07-23T16:09:07;7.82;;;7.00;;
62353;SDS011;48391;49.184;2.418;2022-07-23T16:11:33;8.13;;;7.00;;
62353;SDS011;48391;49.184;2.418;2022-07-23T16:14:00;7.85;;;7.03;;
62353;SDS011;48391;49.184;2.418;2022-07-23T16:16:26;7.30;;;6.60;;
62353;SDS011;48391;49.184;2.418;2022-07-23T16:18:53;7.53;;;6.82;;
62353;SDS011;48391;49.184;2.418;2022-07-23T16:21:19;8.60;;;7.70;;
62353;SDS011;48391;49.184;2.418;2022-07-23T16:23:45;7.82;;;7.03;;
62353;SDS011;48391;49.184;2.418;2022-07-23T16:26:11;8.02;;;6.85;;
62353;SDS011;48391;49.184;2.418;2022-07-23T16:28:38;6.95;;;5.90;;
62353;SDS011;48391;49.184;2.418;2022-07-23T16:31:04;7.93;;;7.13;;
62353;SDS011;48391;49.184;2.418;2022-07-23T16:33:30;8.23;;;6.57;;
62353;SDS011;48391;49.184;2.418;2022-07-23T16:35:56;9.48;;;7.07;;
62353;SDS011;48391;49.184;2.418;2022-07-23T16:38:22;7.22;;;6.53;;
62353;SDS011;48391;49.184;2.418;2022-07-23T16:40:50;7.88;;;6.80;;
62353;SDS011;48391;49.184;2.418;2022-07-23T16:43:16;6.50;;;5.90;;
62353;SDS011;48391;49.184;2.418;2022-07-23T16:45:43;7.40;;;6.68;;
62353;SDS011;48391;49.184;2.418;2022-07-23T16:48:10;7.47;;;6.70;;
62353;SDS011;48391;49.184;2.418;2022-07-23T16:50:36;6.68;;;6.03;;
62353;SDS011;48391;49.184;2.418;2022-07-23T16:53:02;6.53;;;5.78;;
62353;SDS011;48391;49.184;2.418;2022-07-23T16:55:28;7.55;;;6.00;;
62353;SDS011;48391;49.184;2.418;2022-07-23T16:57:54;7.55;;;5.72;;
62353;SDS011;48391;49.184;2.418;2022-07-23T17:00:21;7.45;;;6.75;;
62353;SDS011;48391;49.184;2.418;2022-07-23T17:02:47;7.15;;;6.47;;
62353;SDS011;48391;49.184;2.418;2022-07-23T17:05:13;6.88;;;6.18;;
62353;SDS011;48391;49.184;2.418;2022-07-23T17:07:39;8.88;;;6.32;;
62353;SDS011;48391;49.184;2.418;2022-07-23T17:10:05;6.45;;;5.82;;
62353;SDS011;48391;49.184;2.418;2022-07-23T17:12:32;6.53;;;5.93;;
62353;SDS011;48391;49.184;2.418;2022-07-23T17:14:58;9.02;;;6.80;;
62353;SDS011;48391;49.184;2.418;2022-07-23T17:17:24;6.75;;;6.15;;
62353;SDS011;48391;49.184;2.418;2022-07-23T17:19:50;5.85;;;5.35;;
62353;SDS011;48391;49.184;2.418;2022-07-23T17:22:16;8.10;;;7.03;;
62353;SDS011;48391;49.184;2.418;2022-07-23T17:24:42;6.88;;;6.15;;
62353;SDS011;48391;49.184;2.418;2022-07-23T17:27:08;5.20;;;4.63;;
62353;SDS011;48391;49.184;2.418;2022-07-23T17:29:34;6.90;;;5.60;;
62353;SDS011;48391;49.184;2.418;2022-07-23T17:32:00;6.03;;;5.53;;
62353;SDS011;48391;49.184;2.418;2022-07-23T17:34:26;7.65;;;5.43;;
62353;SDS011;48391;49.184;2.418;2022-07-23T17:36:53;7.38;;;5.53;;
62353;SDS011;48391;49.184;2.418;2022-07-23T17:39:19;7.15;;;6.03;;
62353;SDS011;48391;49.184;2.418;2022-07-23T17:41:45;7.03;;;6.22;;
62353;SDS011;48391;49.184;2.418;2022-07-23T17:44:14;5.35;;;4.85;;
62353;SDS011;48391;49.184;2.418;2022-07-23T17:46:41;5.50;;;5.03;;
62353;SDS011;48391;49.184;2.418;2022-07-23T17:49:07;4.90;;;4.60;;
62353;SDS011;48391;49.184;2.418;2022-07-23T17:51:33;5.30;;;4.90;;
62353;SDS011;48391;49.184;2.418;2022-07-23T17:53:59;5.50;;;5.00;;
62353;SDS011;48391;49.184;2.418;2022-07-23T17:56:25;5.85;;;4.68;;
62353;SDS011;48391;49.184;2.418;2022-07-23T17:58:51;7.95;;;5.55;;
62353;SDS011;48391;49.184;2.418;2022-07-23T18:01:17;6.93;;;5.45;;
62353;SDS011;48391;49.184;2.418;2022-07-23T18:03:43;5.30;;;4.80;;
62353;SDS011;48391;49.184;2.418;2022-07-23T18:06:11;4.93;;;4.50;;
62353;SDS011;48391;49.184;2.418;2022-07-23T18:08:37;6.20;;;5.60;;
62353;SDS011;48391;49.184;2.418;2022-07-23T18:11:03;5.60;;;5.10;;
62353;SDS011;48391;49.184;2.418;2022-07-23T18:13:29;5.35;;;4.95;;
62353;SDS011;48391;49.184;2.418;2022-07-23T18:15:56;5.10;;;4.68;;
62353;SDS011;48391;49.184;2.418;2022-07-23T18:18:22;5.93;;;5.43;;
62353;SDS011;48391;49.184;2.418;2022-07-23T18:20:48;6.43;;;5.82;;
62353;SDS011;48391;49.184;2.418;2022-07-23T18:23:14;5.60;;;5.15;;
62353;SDS011;48391;49.184;2.418;2022-07-23T18:25:40;6.85;;;5.35;;
62353;SDS011;48391;49.184;2.418;2022-07-23T18:28:07;5.18;;;4.68;;
62353;SDS011;48391;49.184;2.418;2022-07-23T18:30:33;5.80;;;5.05;;
62353;SDS011;48391;49.184;2.418;2022-07-23T18:32:59;5.90;;;5.35;;
62353;SDS011;48391;49.184;2.418;2022-07-23T18:35:25;5.97;;;4.55;;
62353;SDS011;48391;49.184;2.418;2022-07-23T18:37:51;6.28;;;5.25;;
62353;SDS011;48391;49.184;2.418;2022-07-23T18:40:17;5.57;;;4.93;;
62353;SDS011;48391;49.184;2.418;2022-07-23T18:42:44;7.28;;;5.60;;
62353;SDS011;48391;49.184;2.418;2022-07-23T18:45:11;5.03;;;4.63;;
62353;SDS011;48391;49.184;2.418;2022-07-23T18:47:37;6.55;;;5.85;;
62353;SDS011;48391;49.184;2.418;2022-07-23T18:50:04;4.97;;;4.55;;
62353;SDS011;48391;49.184;2.418;2022-07-23T18:52:30;6.38;;;5.28;;
62353;SDS011;48391;49.184;2.418;2022-07-23T18:54:56;5.97;;;5.25;;
62353;SDS011;48391;49.184;2.418;2022-07-23T18:57:22;5.70;;;5.20;;
62353;SDS011;48391;49.184;2.418;2022-07-23T18:59:48;6.63;;;5.95;;
62353;SDS011;48391;49.184;2.418;2022-07-23T19:02:14;5.78;;;5.00;;
62353;SDS011;48391;49.184;2.418;2022-07-23T19:04:41;4.93;;;4.43;;
62353;SDS011;48391;49.184;2.418;2022-07-23T19:07:07;11.05;;;8.77;;
62353;SDS011;48391;49.184;2.418;2022-07-23T19:09:34;6.47;;;5.57;;
62353;SDS011;48391;49.184;2.418;2022-07-23T19:12:00;9.63;;;7.78;;
62353;SDS011;48391;49.184;2.418;2022-07-23T19:14:26;7.18;;;6.40;;
62353;SDS011;48391;49.184;2.418;2022-07-23T19:16:52;37.97;;;31.52;;
62353;SDS011;48391;49.184;2.418;2022-07-23T19:19:18;99.55;;;60.97;;
62353;SDS011;48391;49.184;2.418;2022-07-23T19:21:44;16.40;;;11.68;;
62353;SDS011;48391;49.184;2.418;2022-07-23T19:24:11;19.10;;;15.63;;
62353;SDS011;48391;49.184;2.418;2022-07-23T19:26:37;8.07;;;6.47;;
62353;SDS011;48391;49.184;2.418;2022-07-23T19:29:03;5.40;;;5.00;;
62353;SDS011;48391;49.184;2.418;2022-07-23T19:31:29;7.18;;;6.47;;
62353;SDS011;48391;49.184;2.418;2022-07-23T19:33:55;6.43;;;5.30;;
62353;SDS011;48391;49.184;2.418;2022-07-23T19:36:21;8.38;;;6.65;;
62353;SDS011;48391;49.184;2.418;2022-07-23T19:38:47;7.53;;;6.80;;
62353;SDS011;48391;49.184;2.418;2022-07-23T19:41:13;7.95;;;7.20;;
62353;SDS011;48391;49.184;2.418;2022-07-23T19:43:39;8.02;;;7.13;;
62353;SDS011;48391;49.184;2.418;2022-07-23T19:46:05;7.28;;;6.53;;
62353;SDS011;48391;49.184;2.418;2022-07-23T19:48:31;10.30;;;8.48;;
62353;SDS011;48391;49.184;2.418;2022-07-23T19:50:58;17.90;;;10.27;;
62353;SDS011;48391;49.184;2.418;2022-07-23T19:53:25;13.88;;;9.82;;
62353;SDS011;48391;49.184;2.418;2022-07-23T19:55:51;11.45;;;7.53;;
62353;SDS011;48391;49.184;2.418;2022-07-23T19:58:17;19.75;;;15.30;;
62353;SDS011;48391;49.184;2.418;2022-07-23T20:00:43;13.05;;;10.90;;
62353;SDS011;48391;49.184;2.418;2022-07-23T20:03:09;60.85;;;41.10;;
62353;SDS011;48391;49.184;2.418;2022-07-23T20:05:35;36.22;;;27.70;;
62353;SDS011;48391;49.184;2.418;2022-07-23T20:08:01;45.95;;;31.98;;
62353;SDS011;48391;49.184;2.418;2022-07-23T20:10:27;48.13;;;28.08;;
62353;SDS011;48391;49.184;2.418;2022-07-23T20:12:53;23.13;;;15.00;;
62353;SDS011;48391;49.184;2.418;2022-07-23T20:15:20;24.38;;;16.17;;
62353;SDS011;48391;49.184;2.418;2022-07-23T20:17:46;18.73;;;11.63;;
62353;SDS011;48391;49.184;2.418;2022-07-23T20:20:12;11.27;;;8.55;;
62353;SDS011;48391;49.184;2.418;2022-07-23T20:22:39;10.70;;;7.63;;
62353;SDS011;48391;49.184;2.418;2022-07-23T20:25:05;12.52;;;10.65;;
62353;SDS011;48391;49.184;2.418;2022-07-23T20:27:32;8.00;;;6.75;;
62353;SDS011;48391;49.184;2.418;2022-07-23T20:29:58;14.45;;;6.13;;
62353;SDS011;48391;49.184;2.418;2022-07-23T20:32:24;9.68;;;6.10;;
62353;SDS011;48391;49.184;2.418;2022-07-23T20:34:50;9.57;;;5.68;;
62353;SDS011;48391;49.184;2.418;2022-07-23T20:37:16;20.63;;;6.30;;
62353;SDS011;48391;49.184;2.418;2022-07-23T20:39:43;7.75;;;4.60;;
62353;SDS011;48391;49.184;2.418;2022-07-23T20:42:09;8.48;;;6.30;;
62353;SDS011;48391;49.184;2.418;2022-07-23T20:44:35;15.13;;;13.52;;
62353;SDS011;48391;49.184;2.418;2022-07-23T20:47:01;30.98;;;24.27;;